Pagrindinis puslapis
METAR-TAF:

METAR-TAF

Oro uostai :

Ventspilio oro uostas

Ventspilis, Latvija

platuma: 57-21-28N, ilguma: 021-32-39E, Aukštis: 6 m

Dabartinis oras

Ataskaita buvo paskelbta 15 minutes, ne 11:50 UTC
Vėjas 11 kt iš Vakarų/Pietvakarių, svyruoja nuo Pietvakarių ir Vakarų/Šiaurės Vakarų
Temperatūra 19°C
Drėgmė 60%
Slėgis 1028 hPa
Matomumas 10 km arba daugiau
Mažai debesys ne aukštis 3000 ft
Su prošvaistėmis ne aukštis 3700 ft

METAR: EVVA 221150Z AUTO 25011KT 230V290 9999 FEW030 BKN037 19/11 Q1028

Laikas: 15:05 (12:05 UTC)


TAF: trūkstamas

Orai ataskaitas ir orų prognozės (METAR, TAF).

turimą stotys yra geltonos ir raudonos taškus žemėlapyje.

Perkelti pele per norėdami pamatyti stoties vardą.

Tada spustelėkite, norėdami matyti oro stebėjimo ir prognozės.

Norėdami pakeisti žemėlapį: spustelėkite ant žalios mygtukų su juodo kryžiaus žemyn,; žalią mygtuką su brūkšneliu, jei norite nutolinti; arba žalių rodyklių gretimoms žemėlapius.


METAR-TAF: